sensor_id;sensor_type;location;lat;lon;timestamp;temperature;humidity
44111;DHT22;29774;52.664;5.074;2023-03-29T00:01:24;6.70;80.00
44111;DHT22;29774;52.664;5.074;2023-03-29T00:03:50;6.70;79.70
44111;DHT22;29774;52.664;5.074;2023-03-29T00:06:16;6.70;80.10
44111;DHT22;29774;52.664;5.074;2023-03-29T00:08:47;6.70;79.70
44111;DHT22;29774;52.664;5.074;2023-03-29T00:11:19;7.00;79.60
44111;DHT22;29774;52.664;5.074;2023-03-29T00:13:45;7.00;79.10
44111;DHT22;29774;52.664;5.074;2023-03-29T00:16:11;7.10;78.70
44111;DHT22;29774;52.664;5.074;2023-03-29T00:18:38;7.20;78.30
44111;DHT22;29774;52.664;5.074;2023-03-29T00:21:04;7.20;78.00
44111;DHT22;29774;52.664;5.074;2023-03-29T00:23:30;7.10;78.10
44111;DHT22;29774;52.664;5.074;2023-03-29T00:25:56;7.10;78.10
44111;DHT22;29774;52.664;5.074;2023-03-29T00:28:21;7.30;77.90
44111;DHT22;29774;52.664;5.074;2023-03-29T00:30:47;7.20;77.60
44111;DHT22;29774;52.664;5.074;2023-03-29T00:33:15;7.20;77.60
44111;DHT22;29774;52.664;5.074;2023-03-29T00:35:41;7.20;77.40
44111;DHT22;29774;52.664;5.074;2023-03-29T00:38:07;7.40;77.30
44111;DHT22;29774;52.664;5.074;2023-03-29T00:40:33;7.30;77.30
44111;DHT22;29774;52.664;5.074;2023-03-29T00:42:59;7.30;77.20
44111;DHT22;29774;52.664;5.074;2023-03-29T00:45:27;7.10;77.40
44111;DHT22;29774;52.664;5.074;2023-03-29T00:48:00;7.00;78.00
44111;DHT22;29774;52.664;5.074;2023-03-29T00:50:58;7.10;78.10
44111;DHT22;29774;52.664;5.074;2023-03-29T00:53:32;7.10;78.00
44111;DHT22;29774;52.664;5.074;2023-03-29T00:56:01;7.10;78.10
44111;DHT22;29774;52.664;5.074;2023-03-29T00:58:38;7.00;78.10
44111;DHT22;29774;52.664;5.074;2023-03-29T01:01:10;6.90;78.20
44111;DHT22;29774;52.664;5.074;2023-03-29T01:03:50;6.70;78.90
44111;DHT22;29774;52.664;5.074;2023-03-29T01:06:21;6.70;79.10
44111;DHT22;29774;52.664;5.074;2023-03-29T01:08:58;6.70;79.40
44111;DHT22;29774;52.664;5.074;2023-03-29T01:11:42;6.70;79.20
44111;DHT22;29774;52.664;5.074;2023-03-29T01:14:32;6.70;79.30
44111;DHT22;29774;52.664;5.074;2023-03-29T01:16:59;6.70;79.50
44111;DHT22;29774;52.664;5.074;2023-03-29T01:19:28;6.70;79.60
44111;DHT22;29774;52.664;5.074;2023-03-29T01:29:48;6.70;79.80
44111;DHT22;29774;52.664;5.074;2023-03-29T01:32:29;6.80;79.60
44111;DHT22;29774;52.664;5.074;2023-03-29T01:35:09;6.70;79.80
44111;DHT22;29774;52.664;5.074;2023-03-29T01:37:55;6.80;79.80
44111;DHT22;29774;52.664;5.074;2023-03-29T01:40:23;6.70;79.60
44111;DHT22;29774;52.664;5.074;2023-03-29T01:43:04;6.70;79.80
44111;DHT22;29774;52.664;5.074;2023-03-29T01:45:42;6.70;80.00
44111;DHT22;29774;52.664;5.074;2023-03-29T01:48:18;6.60;80.00
44111;DHT22;29774;52.664;5.074;2023-03-29T01:50:50;6.70;79.90
44111;DHT22;29774;52.664;5.074;2023-03-29T01:55:54;6.70;79.90
44111;DHT22;29774;52.664;5.074;2023-03-29T01:58:27;6.70;80.10
44111;DHT22;29774;52.664;5.074;2023-03-29T02:00:54;6.80;80.00
44111;DHT22;29774;52.664;5.074;2023-03-29T02:03:23;6.70;79.90
44111;DHT22;29774;52.664;5.074;2023-03-29T02:05:51;6.70;80.10
44111;DHT22;29774;52.664;5.074;2023-03-29T02:08:18;6.70;80.20
44111;DHT22;29774;52.664;5.074;2023-03-29T02:10:45;6.70;80.30
44111;DHT22;29774;52.664;5.074;2023-03-29T02:13:11;6.70;80.30
44111;DHT22;29774;52.664;5.074;2023-03-29T02:15:36;6.70;80.40
44111;DHT22;29774;52.664;5.074;2023-03-29T02:18:03;6.70;80.40
44111;DHT22;29774;52.664;5.074;2023-03-29T02:20:39;6.70;80.20
44111;DHT22;29774;52.664;5.074;2023-03-29T02:23:17;6.90;80.10
44111;DHT22;29774;52.664;5.074;2023-03-29T02:25:50;6.90;80.10
44111;DHT22;29774;52.664;5.074;2023-03-29T02:28:18;6.80;80.10
44111;DHT22;29774;52.664;5.074;2023-03-29T02:30:49;6.90;80.10
44111;DHT22;29774;52.664;5.074;2023-03-29T02:33:23;6.90;80.20
44111;DHT22;29774;52.664;5.074;2023-03-29T02:35:59;6.90;80.50
44111;DHT22;29774;52.664;5.074;2023-03-29T02:38:26;6.90;81.00
44111;DHT22;29774;52.664;5.074;2023-03-29T02:40:53;7.00;80.90
44111;DHT22;29774;52.664;5.074;2023-03-29T02:43:20;6.90;80.80
44111;DHT22;29774;52.664;5.074;2023-03-29T02:45:47;6.90;80.70
44111;DHT22;29774;52.664;5.074;2023-03-29T02:48:16;6.90;80.70
44111;DHT22;29774;52.664;5.074;2023-03-29T02:50:45;7.00;80.60
44111;DHT22;29774;52.664;5.074;2023-03-29T02:53:15;7.00;80.50
44111;DHT22;29774;52.664;5.074;2023-03-29T02:55:41;7.00;80.60
44111;DHT22;29774;52.664;5.074;2023-03-29T02:58:07;6.90;80.80
44111;DHT22;29774;52.664;5.074;2023-03-29T03:00:38;6.90;81.10
44111;DHT22;29774;52.664;5.074;2023-03-29T03:03:06;6.90;81.10
44111;DHT22;29774;52.664;5.074;2023-03-29T03:05:36;6.80;81.40
44111;DHT22;29774;52.664;5.074;2023-03-29T03:08:03;6.80;81.60
44111;DHT22;29774;52.664;5.074;2023-03-29T03:10:28;6.80;81.70
44111;DHT22;29774;52.664;5.074;2023-03-29T03:12:54;6.80;81.70
44111;DHT22;29774;52.664;5.074;2023-03-29T03:15:20;6.80;81.80
44111;DHT22;29774;52.664;5.074;2023-03-29T03:17:46;6.80;81.80
44111;DHT22;29774;52.664;5.074;2023-03-29T03:20:13;6.80;81.90
44111;DHT22;29774;52.664;5.074;2023-03-29T03:22:44;6.80;81.90
44111;DHT22;29774;52.664;5.074;2023-03-29T03:25:17;6.90;81.70
44111;DHT22;29774;52.664;5.074;2023-03-29T03:27:47;6.80;81.90
44111;DHT22;29774;52.664;5.074;2023-03-29T03:30:14;6.80;82.10
44111;DHT22;29774;52.664;5.074;2023-03-29T03:32:40;6.80;82.10
44111;DHT22;29774;52.664;5.074;2023-03-29T03:35:08;6.90;82.20
44111;DHT22;29774;52.664;5.074;2023-03-29T03:37:36;6.80;82.10
44111;DHT22;29774;52.664;5.074;2023-03-29T03:40:04;6.80;82.30
44111;DHT22;29774;52.664;5.074;2023-03-29T03:42:36;6.80;82.30
44111;DHT22;29774;52.664;5.074;2023-03-29T03:45:02;6.80;82.40
44111;DHT22;29774;52.664;5.074;2023-03-29T03:47:28;6.90;82.40
44111;DHT22;29774;52.664;5.074;2023-03-29T03:49:55;6.90;82.50
44111;DHT22;29774;52.664;5.074;2023-03-29T03:52:20;6.90;82.50
44111;DHT22;29774;52.664;5.074;2023-03-29T03:54:46;6.90;82.40
44111;DHT22;29774;52.664;5.074;2023-03-29T03:57:12;6.90;82.40
44111;DHT22;29774;52.664;5.074;2023-03-29T03:59:38;6.90;82.50
44111;DHT22;29774;52.664;5.074;2023-03-29T04:02:05;6.90;82.60
44111;DHT22;29774;52.664;5.074;2023-03-29T04:04:31;6.90;82.60
44111;DHT22;29774;52.664;5.074;2023-03-29T04:06:56;6.90;82.60
44111;DHT22;29774;52.664;5.074;2023-03-29T04:09:31;7.00;82.60
44111;DHT22;29774;52.664;5.074;2023-03-29T04:11:58;7.00;82.60
44111;DHT22;29774;52.664;5.074;2023-03-29T04:14:25;7.00;82.60
44111;DHT22;29774;52.664;5.074;2023-03-29T04:16:52;7.00;82.70
44111;DHT22;29774;52.664;5.074;2023-03-29T04:19:18;7.00;82.70
44111;DHT22;29774;52.664;5.074;2023-03-29T04:21:43;7.00;82.70
44111;DHT22;29774;52.664;5.074;2023-03-29T04:24:12;7.10;82.70
44111;DHT22;29774;52.664;5.074;2023-03-29T04:26:38;7.10;82.70
44111;DHT22;29774;52.664;5.074;2023-03-29T04:29:04;7.20;82.60
44111;DHT22;29774;52.664;5.074;2023-03-29T04:31:30;7.20;82.60
44111;DHT22;29774;52.664;5.074;2023-03-29T04:33:56;7.20;82.60
44111;DHT22;29774;52.664;5.074;2023-03-29T04:36:22;7.20;82.60
44111;DHT22;29774;52.664;5.074;2023-03-29T04:38:48;7.20;82.70
44111;DHT22;29774;52.664;5.074;2023-03-29T04:41:17;7.20;82.70
44111;DHT22;29774;52.664;5.074;2023-03-29T04:43:42;7.20;82.90
44111;DHT22;29774;52.664;5.074;2023-03-29T04:46:13;7.20;82.90
44111;DHT22;29774;52.664;5.074;2023-03-29T04:48:39;7.20;82.90
44111;DHT22;29774;52.664;5.074;2023-03-29T04:51:05;7.20;83.10
44111;DHT22;29774;52.664;5.074;2023-03-29T04:53:31;7.20;83.10
44111;DHT22;29774;52.664;5.074;2023-03-29T04:55:56;7.10;83.30
44111;DHT22;29774;52.664;5.074;2023-03-29T04:58:24;7.20;83.30
44111;DHT22;29774;52.664;5.074;2023-03-29T05:00:50;7.20;83.30
44111;DHT22;29774;52.664;5.074;2023-03-29T05:03:16;7.20;83.50
44111;DHT22;29774;52.664;5.074;2023-03-29T05:05:42;7.20;83.60
44111;DHT22;29774;52.664;5.074;2023-03-29T05:08:08;7.20;83.70
44111;DHT22;29774;52.664;5.074;2023-03-29T05:10:35;7.20;83.90
44111;DHT22;29774;52.664;5.074;2023-03-29T05:13:01;7.10;84.00
44111;DHT22;29774;52.664;5.074;2023-03-29T05:15:29;7.20;84.20
44111;DHT22;29774;52.664;5.074;2023-03-29T05:17:55;7.10;84.40
44111;DHT22;29774;52.664;5.074;2023-03-29T05:20:21;7.20;84.40
44111;DHT22;29774;52.664;5.074;2023-03-29T05:22:47;7.20;84.50
44111;DHT22;29774;52.664;5.074;2023-03-29T05:25:13;7.20;84.60
44111;DHT22;29774;52.664;5.074;2023-03-29T05:27:41;7.10;84.60
44111;DHT22;29774;52.664;5.074;2023-03-29T05:30:08;7.20;84.60
44111;DHT22;29774;52.664;5.074;2023-03-29T05:32:35;7.10;84.70
44111;DHT22;29774;52.664;5.074;2023-03-29T05:35:01;7.20;84.70
44111;DHT22;29774;52.664;5.074;2023-03-29T05:37:27;7.20;84.90
44111;DHT22;29774;52.664;5.074;2023-03-29T05:39:52;7.20;85.00
44111;DHT22;29774;52.664;5.074;2023-03-29T05:42:19;7.20;85.10
44111;DHT22;29774;52.664;5.074;2023-03-29T05:44:47;7.20;85.10
44111;DHT22;29774;52.664;5.074;2023-03-29T05:47:12;7.20;85.10
44111;DHT22;29774;52.664;5.074;2023-03-29T05:49:38;7.20;85.10
44111;DHT22;29774;52.664;5.074;2023-03-29T05:52:04;7.20;85.10
44111;DHT22;29774;52.664;5.074;2023-03-29T05:54:31;7.30;85.10
44111;DHT22;29774;52.664;5.074;2023-03-29T05:56:56;7.20;85.00
44111;DHT22;29774;52.664;5.074;2023-03-29T05:59:22;7.30;85.00
44111;DHT22;29774;52.664;5.074;2023-03-29T06:01:49;7.30;84.90
44111;DHT22;29774;52.664;5.074;2023-03-29T06:04:15;7.40;84.90
44111;DHT22;29774;52.664;5.074;2023-03-29T06:06:42;7.40;84.80
44111;DHT22;29774;52.664;5.074;2023-03-29T06:09:07;7.40;84.60
44111;DHT22;29774;52.664;5.074;2023-03-29T06:11:34;7.50;84.40
44111;DHT22;29774;52.664;5.074;2023-03-29T06:14:00;7.50;84.20
44111;DHT22;29774;52.664;5.074;2023-03-29T06:16:26;7.50;84.10
44111;DHT22;29774;52.664;5.074;2023-03-29T06:18:53;7.60;84.00
44111;DHT22;29774;52.664;5.074;2023-03-29T06:21:19;7.60;84.00
44111;DHT22;29774;52.664;5.074;2023-03-29T06:23:44;7.70;83.80
44111;DHT22;29774;52.664;5.074;2023-03-29T06:26:10;7.70;83.70
44111;DHT22;29774;52.664;5.074;2023-03-29T06:28:37;7.70;83.70
44111;DHT22;29774;52.664;5.074;2023-03-29T06:31:03;7.80;83.70
44111;DHT22;29774;52.664;5.074;2023-03-29T06:33:30;7.80;83.70
44111;DHT22;29774;52.664;5.074;2023-03-29T06:35:57;7.80;83.70
44111;DHT22;29774;52.664;5.074;2023-03-29T06:38:23;7.90;83.80
44111;DHT22;29774;52.664;5.074;2023-03-29T06:40:50;7.90;83.80
44111;DHT22;29774;52.664;5.074;2023-03-29T06:43:17;7.90;83.80
44111;DHT22;29774;52.664;5.074;2023-03-29T06:45:43;7.90;83.70
44111;DHT22;29774;52.664;5.074;2023-03-29T06:48:09;8.00;83.50
44111;DHT22;29774;52.664;5.074;2023-03-29T06:50:36;8.00;83.50
44111;DHT22;29774;52.664;5.074;2023-03-29T06:53:02;8.00;83.40
44111;DHT22;29774;52.664;5.074;2023-03-29T06:55:28;8.10;83.40
44111;DHT22;29774;52.664;5.074;2023-03-29T06:57:56;8.10;83.40
44111;DHT22;29774;52.664;5.074;2023-03-29T07:00:22;8.20;83.40
44111;DHT22;29774;52.664;5.074;2023-03-29T07:02:55;8.20;83.30
44111;DHT22;29774;52.664;5.074;2023-03-29T07:05:22;8.20;83.40
44111;DHT22;29774;52.664;5.074;2023-03-29T07:07:48;8.30;83.40
44111;DHT22;29774;52.664;5.074;2023-03-29T07:10:41;8.30;83.40
44111;DHT22;29774;52.664;5.074;2023-03-29T07:13:08;8.30;83.20
44111;DHT22;29774;52.664;5.074;2023-03-29T07:15:36;8.40;83.10
44111;DHT22;29774;52.664;5.074;2023-03-29T07:18:02;8.40;83.10
44111;DHT22;29774;52.664;5.074;2023-03-29T07:20:29;8.40;83.00
44111;DHT22;29774;52.664;5.074;2023-03-29T07:22:55;8.40;83.10
44111;DHT22;29774;52.664;5.074;2023-03-29T07:25:22;8.50;83.00
44111;DHT22;29774;52.664;5.074;2023-03-29T07:27:48;8.50;83.00
44111;DHT22;29774;52.664;5.074;2023-03-29T07:30:17;8.60;83.10
44111;DHT22;29774;52.664;5.074;2023-03-29T07:32:44;8.60;83.00
44111;DHT22;29774;52.664;5.074;2023-03-29T07:35:12;8.60;83.10
44111;DHT22;29774;52.664;5.074;2023-03-29T07:37:39;8.70;83.20
44111;DHT22;29774;52.664;5.074;2023-03-29T07:40:08;8.70;83.30
44111;DHT22;29774;52.664;5.074;2023-03-29T07:42:41;8.80;83.20
44111;DHT22;29774;52.664;5.074;2023-03-29T07:45:08;8.70;83.10
44111;DHT22;29774;52.664;5.074;2023-03-29T07:47:34;8.80;83.30
44111;DHT22;29774;52.664;5.074;2023-03-29T07:50:00;8.90;83.40
44111;DHT22;29774;52.664;5.074;2023-03-29T07:52:26;8.90;83.00
44111;DHT22;29774;52.664;5.074;2023-03-29T07:54:53;9.00;83.10
44111;DHT22;29774;52.664;5.074;2023-03-29T07:57:20;9.10;83.60
44111;DHT22;29774;52.664;5.074;2023-03-29T07:59:46;9.10;83.30
44111;DHT22;29774;52.664;5.074;2023-03-29T08:02:12;9.10;82.50
44111;DHT22;29774;52.664;5.074;2023-03-29T08:04:38;9.20;83.00
44111;DHT22;29774;52.664;5.074;2023-03-29T08:07:04;9.20;83.20
44111;DHT22;29774;52.664;5.074;2023-03-29T08:09:30;9.30;83.40
44111;DHT22;29774;52.664;5.074;2023-03-29T08:11:56;9.40;83.60
44111;DHT22;29774;52.664;5.074;2023-03-29T08:14:22;9.40;83.50
44111;DHT22;29774;52.664;5.074;2023-03-29T08:16:48;9.50;83.50
44111;DHT22;29774;52.664;5.074;2023-03-29T08:19:14;9.60;83.40
44111;DHT22;29774;52.664;5.074;2023-03-29T08:21:40;9.60;83.40
44111;DHT22;29774;52.664;5.074;2023-03-29T08:24:06;9.70;83.70
44111;DHT22;29774;52.664;5.074;2023-03-29T08:26:32;9.70;83.30
44111;DHT22;29774;52.664;5.074;2023-03-29T08:28:58;9.70;83.40
44111;DHT22;29774;52.664;5.074;2023-03-29T08:31:23;9.70;83.50
44111;DHT22;29774;52.664;5.074;2023-03-29T08:33:49;9.70;83.00
44111;DHT22;29774;52.664;5.074;2023-03-29T08:36:14;9.70;82.00
44111;DHT22;29774;52.664;5.074;2023-03-29T08:38:41;9.80;82.70
44111;DHT22;29774;52.664;5.074;2023-03-29T08:41:24;9.70;82.70
44111;DHT22;29774;52.664;5.074;2023-03-29T08:44:09;9.90;83.60
44111;DHT22;29774;52.664;5.074;2023-03-29T08:46:52;10.00;84.20
44111;DHT22;29774;52.664;5.074;2023-03-29T08:49:21;10.00;84.10
44111;DHT22;29774;52.664;5.074;2023-03-29T08:51:51;10.10;84.70
44111;DHT22;29774;52.664;5.074;2023-03-29T08:54:22;10.20;85.00
44111;DHT22;29774;52.664;5.074;2023-03-29T08:56:50;10.20;84.80
44111;DHT22;29774;52.664;5.074;2023-03-29T08:59:26;10.30;85.00
44111;DHT22;29774;52.664;5.074;2023-03-29T09:01:56;10.30;85.20
44111;DHT22;29774;52.664;5.074;2023-03-29T09:04:26;10.50;85.40
44111;DHT22;29774;52.664;5.074;2023-03-29T09:06:52;10.50;85.30
44111;DHT22;29774;52.664;5.074;2023-03-29T09:09:21;10.50;85.20
44111;DHT22;29774;52.664;5.074;2023-03-29T09:17:37;10.70;85.40
44111;DHT22;29774;52.664;5.074;2023-03-29T09:20:06;10.60;84.80
44111;DHT22;29774;52.664;5.074;2023-03-29T09:22:41;10.60;84.60
44111;DHT22;29774;52.664;5.074;2023-03-29T09:28:18;10.70;85.10
44111;DHT22;29774;52.664;5.074;2023-03-29T09:30:50;10.80;84.80
44111;DHT22;29774;52.664;5.074;2023-03-29T09:33:33;10.80;84.70
44111;DHT22;29774;52.664;5.074;2023-03-29T09:38:40;10.60;82.60
44111;DHT22;29774;52.664;5.074;2023-03-29T09:41:23;10.50;82.00
44111;DHT22;29774;52.664;5.074;2023-03-29T09:43:54;10.70;84.00
44111;DHT22;29774;52.664;5.074;2023-03-29T09:46:34;10.80;84.10
44111;DHT22;29774;52.664;5.074;2023-03-29T09:49:04;11.10;84.70
44111;DHT22;29774;52.664;5.074;2023-03-29T09:51:32;10.90;83.00
44111;DHT22;29774;52.664;5.074;2023-03-29T09:53:58;10.80;81.90
44111;DHT22;29774;52.664;5.074;2023-03-29T09:56:25;10.90;82.30
44111;DHT22;29774;52.664;5.074;2023-03-29T09:58:51;10.90;82.70
44111;DHT22;29774;52.664;5.074;2023-03-29T10:01:17;10.80;80.40
44111;DHT22;29774;52.664;5.074;2023-03-29T10:03:51;10.80;79.90
44111;DHT22;29774;52.664;5.074;2023-03-29T10:06:19;11.00;81.50
44111;DHT22;29774;52.664;5.074;2023-03-29T10:08:46;11.00;81.00
44111;DHT22;29774;52.664;5.074;2023-03-29T10:13:50;11.30;82.40
44111;DHT22;29774;52.664;5.074;2023-03-29T10:16:24;11.10;80.70
44111;DHT22;29774;52.664;5.074;2023-03-29T10:18:52;11.20;81.10
44111;DHT22;29774;52.664;5.074;2023-03-29T10:21:19;11.20;81.30
44111;DHT22;29774;52.664;5.074;2023-03-29T10:23:46;11.20;81.10
44111;DHT22;29774;52.664;5.074;2023-03-29T10:26:32;11.40;82.50
44111;DHT22;29774;52.664;5.074;2023-03-29T10:29:03;11.50;82.80
44111;DHT22;29774;52.664;5.074;2023-03-29T10:31:30;11.50;82.40
44111;DHT22;29774;52.664;5.074;2023-03-29T10:34:00;11.50;81.20
44111;DHT22;29774;52.664;5.074;2023-03-29T10:36:27;11.70;82.90
44111;DHT22;29774;52.664;5.074;2023-03-29T10:38:56;11.70;81.80
44111;DHT22;29774;52.664;5.074;2023-03-29T10:41:22;11.70;80.80
44111;DHT22;29774;52.664;5.074;2023-03-29T10:43:50;11.70;80.80
44111;DHT22;29774;52.664;5.074;2023-03-29T10:48:58;11.90;81.70
44111;DHT22;29774;52.664;5.074;2023-03-29T10:51:27;12.10;81.30
44111;DHT22;29774;52.664;5.074;2023-03-29T10:53:56;12.10;80.80
44111;DHT22;29774;52.664;5.074;2023-03-29T11:23:53;12.40;79.30
44111;DHT22;29774;52.664;5.074;2023-03-29T11:26:33;12.40;79.10
44111;DHT22;29774;52.664;5.074;2023-03-29T11:29:07;12.60;80.00
44111;DHT22;29774;52.664;5.074;2023-03-29T11:31:52;12.70;80.30
44111;DHT22;29774;52.664;5.074;2023-03-29T11:42:52;13.10;79.00
44111;DHT22;29774;52.664;5.074;2023-03-29T11:45:29;13.20;78.70
44111;DHT22;29774;52.664;5.074;2023-03-29T11:47:58;12.80;77.90
44111;DHT22;29774;52.664;5.074;2023-03-29T11:50:30;13.00;78.40
44111;DHT22;29774;52.664;5.074;2023-03-29T11:53:04;13.00;78.20
44111;DHT22;29774;52.664;5.074;2023-03-29T11:55:35;13.00;78.80
44111;DHT22;29774;52.664;5.074;2023-03-29T12:00:44;13.20;79.00
44111;DHT22;29774;52.664;5.074;2023-03-29T12:05:47;13.40;78.40
44111;DHT22;29774;52.664;5.074;2023-03-29T12:08:29;13.40;78.80
44111;DHT22;29774;52.664;5.074;2023-03-29T12:11:02;13.60;78.30
44111;DHT22;29774;52.664;5.074;2023-03-29T12:13:32;13.30;76.50
44111;DHT22;29774;52.664;5.074;2023-03-29T12:16:11;13.60;78.40
44111;DHT22;29774;52.664;5.074;2023-03-29T12:18:49;13.60;77.60
44111;DHT22;29774;52.664;5.074;2023-03-29T12:21:21;13.80;77.90
44111;DHT22;29774;52.664;5.074;2023-03-29T12:23:48;14.00;77.00
44111;DHT22;29774;52.664;5.074;2023-03-29T12:29:33;14.10;75.60
44111;DHT22;29774;52.664;5.074;2023-03-29T12:40:14;13.80;75.60
44111;DHT22;29774;52.664;5.074;2023-03-29T12:42:59;13.80;75.80
44111;DHT22;29774;52.664;5.074;2023-03-29T12:45:37;13.70;76.10
44111;DHT22;29774;52.664;5.074;2023-03-29T12:48:05;13.70;76.20
44111;DHT22;29774;52.664;5.074;2023-03-29T12:50:43;13.70;76.40
44111;DHT22;29774;52.664;5.074;2023-03-29T12:53:16;13.70;76.40
44111;DHT22;29774;52.664;5.074;2023-03-29T12:58:40;13.80;77.00
44111;DHT22;29774;52.664;5.074;2023-03-29T13:01:32;13.80;76.50
44111;DHT22;29774;52.664;5.074;2023-03-29T13:06:59;13.80;76.80
44111;DHT22;29774;52.664;5.074;2023-03-29T13:09:32;13.70;76.90
44111;DHT22;29774;52.664;5.074;2023-03-29T13:14:38;13.70;77.20
44111;DHT22;29774;52.664;5.074;2023-03-29T13:17:18;13.30;75.60
44111;DHT22;29774;52.664;5.074;2023-03-29T13:19:58;13.20;76.60
44111;DHT22;29774;52.664;5.074;2023-03-29T13:23:04;13.40;78.20
44111;DHT22;29774;52.664;5.074;2023-03-29T13:28:17;13.30;76.70
44111;DHT22;29774;52.664;5.074;2023-03-29T13:39:30;13.40;77.90
44111;DHT22;29774;52.664;5.074;2023-03-29T13:47:44;13.40;78.50
44111;DHT22;29774;52.664;5.074;2023-03-29T13:50:18;13.40;78.40
44111;DHT22;29774;52.664;5.074;2023-03-29T13:53:25;13.30;78.30
44111;DHT22;29774;52.664;5.074;2023-03-29T13:55:53;13.30;77.70
44111;DHT22;29774;52.664;5.074;2023-03-29T14:01:00;13.00;78.70
44111;DHT22;29774;52.664;5.074;2023-03-29T14:03:27;12.90;78.20
44111;DHT22;29774;52.664;5.074;2023-03-29T14:05:59;13.00;79.60
44111;DHT22;29774;52.664;5.074;2023-03-29T14:08:29;12.90;79.30
44111;DHT22;29774;52.664;5.074;2023-03-29T14:10:57;12.80;79.70
44111;DHT22;29774;52.664;5.074;2023-03-29T14:13:25;12.70;80.10
44111;DHT22;29774;52.664;5.074;2023-03-29T14:16:01;12.60;80.00
44111;DHT22;29774;52.664;5.074;2023-03-29T14:18:32;12.50;79.80
44111;DHT22;29774;52.664;5.074;2023-03-29T14:20:59;12.50;80.80
44111;DHT22;29774;52.664;5.074;2023-03-29T14:23:31;12.50;80.80
44111;DHT22;29774;52.664;5.074;2023-03-29T14:26:08;12.50;80.80
44111;DHT22;29774;52.664;5.074;2023-03-29T14:28:43;12.50;81.20
44111;DHT22;29774;52.664;5.074;2023-03-29T14:31:17;12.40;81.20
44111;DHT22;29774;52.664;5.074;2023-03-29T14:33:43;12.40;81.40
44111;DHT22;29774;52.664;5.074;2023-03-29T14:36:12;12.40;81.30
44111;DHT22;29774;52.664;5.074;2023-03-29T14:38:40;12.30;81.40
44111;DHT22;29774;52.664;5.074;2023-03-29T14:41:08;12.30;81.60
44111;DHT22;29774;52.664;5.074;2023-03-29T14:43:34;12.20;82.00
44111;DHT22;29774;52.664;5.074;2023-03-29T14:46:03;12.20;82.30
44111;DHT22;29774;52.664;5.074;2023-03-29T14:48:30;12.20;83.20
44111;DHT22;29774;52.664;5.074;2023-03-29T14:50:58;12.20;83.80
44111;DHT22;29774;52.664;5.074;2023-03-29T14:53:24;12.10;83.30
44111;DHT22;29774;52.664;5.074;2023-03-29T14:55:52;12.00;83.30
44111;DHT22;29774;52.664;5.074;2023-03-29T14:58:33;12.00;83.40
44111;DHT22;29774;52.664;5.074;2023-03-29T15:01:15;11.90;83.50
44111;DHT22;29774;52.664;5.074;2023-03-29T15:03:43;11.90;83.90
44111;DHT22;29774;52.664;5.074;2023-03-29T15:06:11;11.80;84.00
44111;DHT22;29774;52.664;5.074;2023-03-29T15:08:39;11.80;84.50
44111;DHT22;29774;52.664;5.074;2023-03-29T15:11:17;11.90;85.00
44111;DHT22;29774;52.664;5.074;2023-03-29T15:13:44;11.80;85.10
44111;DHT22;29774;52.664;5.074;2023-03-29T15:16:15;11.70;85.30
44111;DHT22;29774;52.664;5.074;2023-03-29T15:18:43;11.70;85.80
44111;DHT22;29774;52.664;5.074;2023-03-29T15:21:13;11.70;86.00
44111;DHT22;29774;52.664;5.074;2023-03-29T15:23:50;11.60;85.90
44111;DHT22;29774;52.664;5.074;2023-03-29T15:26:22;11.50;85.80
44111;DHT22;29774;52.664;5.074;2023-03-29T15:28:53;11.50;85.90
44111;DHT22;29774;52.664;5.074;2023-03-29T15:31:24;11.40;85.80
44111;DHT22;29774;52.664;5.074;2023-03-29T15:34:05;11.40;86.20
44111;DHT22;29774;52.664;5.074;2023-03-29T15:36:31;11.30;86.30
44111;DHT22;29774;52.664;5.074;2023-03-29T15:38:57;11.30;86.20
44111;DHT22;29774;52.664;5.074;2023-03-29T15:41:23;11.30;86.10
44111;DHT22;29774;52.664;5.074;2023-03-29T15:43:49;11.40;86.10
44111;DHT22;29774;52.664;5.074;2023-03-29T15:46:15;11.40;86.00
44111;DHT22;29774;52.664;5.074;2023-03-29T15:48:41;11.40;85.70
44111;DHT22;29774;52.664;5.074;2023-03-29T15:51:10;11.50;85.50
44111;DHT22;29774;52.664;5.074;2023-03-29T15:53:37;11.50;85.20
44111;DHT22;29774;52.664;5.074;2023-03-29T15:56:05;11.50;85.00
44111;DHT22;29774;52.664;5.074;2023-03-29T15:58:33;11.40;84.90
44111;DHT22;29774;52.664;5.074;2023-03-29T16:03:39;11.40;84.70
44111;DHT22;29774;52.664;5.074;2023-03-29T16:06:09;11.40;84.70
44111;DHT22;29774;52.664;5.074;2023-03-29T16:08:35;11.40;84.50
44111;DHT22;29774;52.664;5.074;2023-03-29T16:11:01;11.40;84.50
44111;DHT22;29774;52.664;5.074;2023-03-29T16:13:26;11.40;84.60
44111;DHT22;29774;52.664;5.074;2023-03-29T16:15:52;11.40;84.60
44111;DHT22;29774;52.664;5.074;2023-03-29T16:18:18;11.40;84.60
44111;DHT22;29774;52.664;5.074;2023-03-29T16:20:43;11.40;84.60
44111;DHT22;29774;52.664;5.074;2023-03-29T16:23:09;11.40;84.80
44111;DHT22;29774;52.664;5.074;2023-03-29T16:25:37;11.30;85.00
44111;DHT22;29774;52.664;5.074;2023-03-29T16:28:05;11.30;85.00
44111;DHT22;29774;52.664;5.074;2023-03-29T16:30:31;11.30;85.10
44111;DHT22;29774;52.664;5.074;2023-03-29T16:32:57;11.20;85.30
44111;DHT22;29774;52.664;5.074;2023-03-29T16:35:30;11.20;85.50
44111;DHT22;29774;52.664;5.074;2023-03-29T16:37:56;11.20;85.80
44111;DHT22;29774;52.664;5.074;2023-03-29T16:40:22;11.20;86.00
44111;DHT22;29774;52.664;5.074;2023-03-29T16:42:48;11.20;86.20
44111;DHT22;29774;52.664;5.074;2023-03-29T16:45:14;11.20;86.40
44111;DHT22;29774;52.664;5.074;2023-03-29T16:47:41;11.20;86.50
44111;DHT22;29774;52.664;5.074;2023-03-29T16:50:15;11.20;86.60
44111;DHT22;29774;52.664;5.074;2023-03-29T16:52:42;11.20;86.70
44111;DHT22;29774;52.664;5.074;2023-03-29T16:55:09;11.20;86.80
44111;DHT22;29774;52.664;5.074;2023-03-29T16:57:38;11.20;86.80
44111;DHT22;29774;52.664;5.074;2023-03-29T17:00:08;11.20;86.70
44111;DHT22;29774;52.664;5.074;2023-03-29T17:02:35;11.20;86.70
44111;DHT22;29774;52.664;5.074;2023-03-29T17:05:01;11.20;86.70
44111;DHT22;29774;52.664;5.074;2023-03-29T17:07:28;11.20;86.60
44111;DHT22;29774;52.664;5.074;2023-03-29T17:09:54;11.20;86.50
44111;DHT22;29774;52.664;5.074;2023-03-29T17:12:21;11.20;86.40
44111;DHT22;29774;52.664;5.074;2023-03-29T17:14:48;11.20;86.30
44111;DHT22;29774;52.664;5.074;2023-03-29T17:17:14;11.30;86.30
44111;DHT22;29774;52.664;5.074;2023-03-29T17:19:40;11.30;86.30
44111;DHT22;29774;52.664;5.074;2023-03-29T17:22:06;11.30;86.30
44111;DHT22;29774;52.664;5.074;2023-03-29T17:24:31;11.30;86.30
44111;DHT22;29774;52.664;5.074;2023-03-29T17:26:57;11.30;86.30
44111;DHT22;29774;52.664;5.074;2023-03-29T17:29:23;11.30;86.30
44111;DHT22;29774;52.664;5.074;2023-03-29T17:31:48;11.30;86.30
44111;DHT22;29774;52.664;5.074;2023-03-29T17:34:15;11.30;86.40
44111;DHT22;29774;52.664;5.074;2023-03-29T17:36:42;11.30;86.40
44111;DHT22;29774;52.664;5.074;2023-03-29T17:39:10;11.30;86.50
44111;DHT22;29774;52.664;5.074;2023-03-29T17:41:37;11.30;86.60
44111;DHT22;29774;52.664;5.074;2023-03-29T17:44:03;11.30;86.70